Startpagina
METAR-TAF:

METAR-TAF

Vliegvelden :

Curaçao International Airport

Curaçao, Nederlandse Antillen

breedte: 12-12N, lengte: 068-58W, hoogte: 9 m

Actueel weer

Dit bericht is 36 minuten geleden gemaakt, om 01:00 UTC
Wind 16 kt uit het oosten
Temperatuur 27°C
Vochtigheid 74%
Druk 1014 hPa
Zicht 10 km of meer
Weinig wolken op 1900 ft

METAR: TNCC 200100Z 10016KT 9999 FEW019 27/22 Q1014 NOSIG

Tijdstip: 21:36 (01:36 UTC)

Verwachting

Dit bericht is 2 uur en het 21 minuten geleden gemaakt, om 23:15 UTC
Verwachting geldig van 20 om 00 UTC tot 20 om 24 UTC
Wind 15 kt uit het oosten
Zicht 10 km of meer
Weinig wolken op 2200 ft
Tijdelijke
van 20 om 14 UTC tot 20 om 20 UTC
Wind 17 kt uit het oosten met uitschieters tot 29 kt

TAF: TNCC 192315Z 2000/2024 09015KT 9999 FEW022 TEMPO 2014/2020 09017G29KT

Waarnemingen en weersverwachtingen van meer dan 4000 vliegvelden (METAR en TAF).

De beschikbare stations zijn de gele en rode punten op de kaart.

Ga met uw muis naar het station om de naam te zien.

Klik dan om waarnemingen en weersverwachtingen te zien.

kaart wijzigen: klik op de groene knoppen met een zwart kruis om in te zoomen, op de groene knop met een streepje om uit te zoomen of op de groene pijlen voor aangrenzende kaarten.


METAR-TAF: